Terminal Aerodrome Forecast
Issued by NWS

Home | Current Version | Previous Version | Text Only | Print | Product List | Glossary Off
Versions: 1 2 3 4 5 6 7 8 9 10 11 12 13 14 15 16 17 18 19 20 21 22 23 24 25 26

000
FTUS43 KGRB 262100 AAB
TAFAUW
TAF AMD
KAUW 262100Z 2621/2718 28012G18KT P6SM SCT040
     FM270100 VRB03KT P6SM SCT250
     FM270600 VRB03KT 4SM BR SCT008 BKN250
      TEMPO 2708/2712 1 1/2SM BR BKN005
     FM271300 12006KT 4SM -SHRA BR BKN010 OVC025=

USA.gov is the U.S. government's official web portal to all federal, state and local government web resources and services.